Time;durP1;ratioP1;P1;durP2;ratioP2;P2;SDS_P1;SDS_P2;PMS_P1;PMS_P2;Temp;Humidity;BMP_temperature;BMP_pressure;BME280_temperature;BME280_humidity;BME280_pressure;Samples;Min_cycle;Max_cycle;Signal;HPM_P1;HPM_P2
2023/05/14 00:01:56;;;;;;;14.35;9.20;;;;;;;8.37;100.00;98783.16;4181726;28;20084;-73
2023/05/14 00:03:57;;;;;;;10.20;8.27;;;;;;;8.37;100.00;98788.69;4179746;28;20397;-73
2023/05/14 00:05:57;;;;;;;9.32;7.78;;;;;;;8.38;100.00;98787.53;4179795;28;20043;-73
2023/05/14 00:07:57;;;;;;;12.25;8.80;;;;;;;8.39;100.00;98786.34;4178592;28;20060;-73
2023/05/14 00:09:58;;;;;;;10.18;8.32;;;;;;;8.41;100.00;98793.13;4180416;28;20077;-73
2023/05/14 00:11:58;;;;;;;10.32;8.77;;;;;;;8.41;100.00;98790.34;4177065;28;20106;-73
2023/05/14 00:13:59;;;;;;;11.68;8.10;;;;;;;8.44;100.00;98786.09;4189280;28;20049;-73
2023/05/14 00:15:59;;;;;;;10.75;8.43;;;;;;;8.45;100.00;98787.69;4185628;28;20552;-73
2023/05/14 00:17:59;;;;;;;10.52;8.30;;;;;;;8.46;100.00;98786.53;4187784;28;20045;-73
2023/05/14 00:20:00;;;;;;;10.45;8.65;;;;;;;8.53;100.00;98785.91;4188434;28;20041;-73
2023/05/14 00:22:00;;;;;;;10.43;7.82;;;;;;;8.57;100.00;98779.31;4187935;28;20722;-73
2023/05/14 00:24:00;;;;;;;11.30;8.75;;;;;;;8.59;100.00;98785.28;4182866;28;20319;-73
2023/05/14 00:26:01;;;;;;;11.43;8.23;;;;;;;8.63;100.00;98790.88;4188224;28;20037;-73
2023/05/14 00:28:02;;;;;;;11.80;8.75;;;;;;;8.71;100.00;98781.63;4187071;28;20036;-73
2023/05/14 00:30:06;;;;;;;9.98;8.02;;;;;;;8.72;100.00;98777.72;4184069;28;20043;-73
2023/05/14 00:32:07;;;;;;;12.52;9.32;;;;;;;8.73;100.00;98773.78;4182576;28;20683;-73
2023/05/14 00:34:07;;;;;;;11.98;9.45;;;;;;;8.75;100.00;98778.94;4188387;28;20029;-73
2023/05/14 00:36:07;;;;;;;12.35;8.88;;;;;;;8.78;100.00;98787.31;4188227;28;20036;-73
2023/05/14 00:38:08;;;;;;;10.68;8.77;;;;;;;8.81;100.00;98772.78;4188566;28;20028;-73
2023/05/14 00:40:11;;;;;;;12.65;9.38;;;;;;;8.82;100.00;98771.63;4174467;28;20029;-73
2023/05/14 00:42:12;;;;;;;11.65;9.25;;;;;;;8.83;100.00;98772.44;4183063;28;20372;-73
2023/05/14 00:44:12;;;;;;;10.38;8.30;;;;;;;8.83;100.00;98772.44;4186491;28;20017;-73
2023/05/14 00:46:13;;;;;;;9.57;8.40;;;;;;;8.82;100.00;98776.34;4178609;28;20027;-73
2023/05/14 00:48:13;;;;;;;9.98;8.32;;;;;;;8.80;100.00;98779.47;4182729;28;20431;-73
2023/05/14 00:50:15;;;;;;;11.27;8.45;;;;;;;8.81;100.00;98775.56;4182323;28;20060;-73
2023/05/14 00:52:16;;;;;;;12.83;7.87;;;;;;;8.82;100.00;98776.34;4187318;28;20036;-73
2023/05/14 00:54:17;;;;;;;12.52;8.90;;;;;;;8.81;100.00;98777.50;4180595;28;20250;-73
2023/05/14 00:56:18;;;;;;;12.65;8.70;;;;;;;8.80;100.00;98775.91;4188743;28;20107;-73
2023/05/14 00:58:21;;;;;;;12.70;9.05;;;;;;;8.76;100.00;98775.03;4188581;28;20059;-73
2023/05/14 01:00:21;;;;;;;12.93;8.93;;;;;;;8.75;100.00;98765.94;4177816;28;20045;-73
2023/05/14 01:02:22;;;;;;;10.98;8.18;;;;;;;8.73;100.00;98773.78;4179045;28;20055;-73
2023/05/14 01:04:23;;;;;;;10.07;8.30;;;;;;;8.68;100.00;98774.03;4173167;28;20091;-73
2023/05/14 01:06:40;;;;;;;11.30;9.18;;;;;;;8.66;100.00;98773.59;4181861;28;20314;-73
2023/05/14 01:09:04;;;;;;;14.95;10.70;;;;;;;8.65;100.00;98780.28;4182566;28;20041;-73
2023/05/14 01:11:23;;;;;;;14.57;10.02;;;;;;;8.68;100.00;98782.31;4186756;28;20037;-73
2023/05/14 01:13:37;;;;;;;11.35;9.23;;;;;;;8.67;100.00;98781.53;4186943;28;20068;-73
2023/05/14 01:15:38;;;;;;;12.50;9.88;;;;;;;8.64;100.00;98768.47;4184523;28;20093;-73
2023/05/14 01:17:45;;;;;;;11.80;9.70;;;;;;;8.62;100.00;98775.50;4188508;28;20045;-73
2023/05/14 01:19:47;;;;;;;12.50;9.35;;;;;;;8.65;100.00;98777.53;4185163;28;20044;-73
2023/05/14 01:21:47;;;;;;;13.75;9.85;;;;;;;8.65;100.00;98769.25;4186224;28;20052;-73
2023/05/14 01:23:47;;;;;;;10.68;8.82;;;;;;;8.65;100.00;98772.00;4186306;28;20037;-73
2023/05/14 01:25:48;;;;;;;13.23;9.57;;;;;;;8.63;100.00;98763.31;4182610;28;20049;-73
2023/05/14 01:28:22;;;;;;;10.63;8.40;;;;;;;8.66;100.00;98771.66;4185443;28;20025;-73
2023/05/14 01:30:30;;;;;;;12.13;8.75;;;;;;;8.69;100.00;98767.41;4175624;28;20045;-73
2023/05/14 01:32:32;;;;;;;10.10;8.40;;;;;;;8.70;100.00;98764.28;4179753;28;20106;-73
2023/05/14 01:34:35;;;;;;;10.63;8.23;;;;;;;8.73;100.00;98769.06;4186745;28;20051;-73
2023/05/14 01:36:35;;;;;;;;;;;;;;;8.74;100.00;98764.34;4177384;28;20250;-73
2023/05/14 01:38:36;;;;;;;10.43;8.50;;;;;;;8.75;100.00;98759.63;4179667;28;19959;-73
2023/05/14 01:40:37;;;;;;;11.93;8.88;;;;;;;8.76;100.00;98762.03;4184961;28;20041;-73
2023/05/14 01:42:37;;;;;;;15.50;9.23;;;;;;;8.77;100.00;98755.38;4186288;28;20093;-73
2023/05/14 01:44:38;;;;;;;13.40;9.50;;;;;;;8.77;100.00;98758.13;4188458;28;20059;-73
2023/05/14 01:46:38;;;;;;;13.48;9.55;;;;;;;8.79;100.00;98761.31;4187469;28;20043;-73
2023/05/14 01:48:40;;;;;;;11.80;9.25;;;;;;;8.77;100.00;98760.88;4177717;28;20392;-73
2023/05/14 01:50:40;;;;;;;13.07;10.10;;;;;;;8.77;100.00;98751.78;4186210;28;20560;-73
2023/05/14 01:52:40;;;;;;;12.52;9.77;;;;;;;8.76;100.00;98755.72;4187589;28;20068;-73
2023/05/14 01:54:41;;;;;;;12.73;9.55;;;;;;;8.76;100.00;98758.47;4183895;28;20083;-73
2023/05/14 01:56:41;;;;;;;11.50;9.38;;;;;;;8.73;100.00;98760.00;4186333;28;20068;-73
2023/05/14 01:58:41;;;;;;;12.13;9.77;;;;;;;8.73;100.00;98765.50;4186285;28;20388;-73
2023/05/14 02:00:42;;;;;;;12.73;10.55;;;;;;;8.70;100.00;98760.72;4179669;28;20133;-73
2023/05/14 02:02:42;;;;;;;15.68;11.82;;;;;;;8.69;100.00;98761.88;4187643;28;20071;-73
2023/05/14 02:04:42;;;;;;;17.17;12.20;;;;;;;8.67;100.00;98756.69;4183719;28;20045;-73
2023/05/14 02:06:43;;;;;;;13.85;10.02;;;;;;;8.65;100.00;98759.03;4186047;28;20056;-73
2023/05/14 02:08:43;;;;;;;13.50;10.23;;;;;;;8.64;100.00;98756.63;4176566;28;20036;-73
2023/05/14 02:10:43;;;;;;;12.00;9.90;;;;;;;8.64;100.00;98756.63;4180147;28;20076;-73
2023/05/14 02:12:44;;;;;;;13.70;10.48;;;;;;;8.62;100.00;98747.91;4181196;28;20048;-73
2023/05/14 02:14:44;;;;;;;12.93;9.68;;;;;;;8.59;100.00;98752.16;4182468;28;20045;-73
2023/05/14 02:16:45;;;;;;;12.93;9.77;;;;;;;8.58;100.00;98747.81;4188156;28;20044;-73
2023/05/14 02:18:45;;;;;;;12.13;8.93;;;;;;;8.54;100.00;98754.44;4186958;28;20481;-73
2023/05/14 02:20:45;;;;;;;10.70;8.82;;;;;;;8.51;100.00;98752.38;4183873;28;20146;-73
2023/05/14 02:22:46;;;;;;;12.02;8.98;;;;;;;8.48;100.00;98742.84;4185291;28;20392;-73
2023/05/14 02:24:48;;;;;;;13.00;8.82;;;;;;;8.48;100.00;98744.81;4188770;28;20040;-73
2023/05/14 02:26:48;;;;;;;10.75;8.65;;;;;;;8.44;100.00;98756.56;4185498;28;20036;-73
2023/05/14 02:28:49;;;;;;;10.68;8.65;;;;;;;8.41;100.00;98753.72;4183374;28;20098;-73
2023/05/14 02:30:49;;;;;;;14.20;9.13;;;;;;;8.39;100.00;98745.81;4182415;28;20641;-73
2023/05/14 02:32:49;;;;;;;12.68;8.80;;;;;;;8.38;100.00;98741.44;4186813;28;20037;-73
2023/05/14 02:34:50;;;;;;;13.57;8.50;;;;;;;8.36;100.00;98743.78;4189110;28;20048;-73
2023/05/14 02:36:50;;;;;;;11.00;7.47;;;;;;;8.30;100.00;98749.88;4187843;28;20365;-73
2023/05/14 02:38:50;;;;;;;10.32;8.63;;;;;;;8.23;100.00;98741.41;4183177;28;20163;-73
2023/05/14 02:40:51;;;;;;;10.82;8.45;;;;;;;8.13;100.00;98737.25;4185028;28;20117;-73
2023/05/14 02:42:51;;;;;;;12.18;8.70;;;;;;;8.04;100.00;98737.41;4189777;28;20399;-73
2023/05/14 02:44:51;;;;;;;12.82;8.70;;;;;;;7.99;100.00;98736.88;4189497;28;20076;-73
2023/05/14 02:46:52;;;;;;;11.85;8.48;;;;;;;7.95;100.00;98739.56;4185027;28;20502;-73
2023/05/14 02:48:52;;;;;;;13.07;8.48;;;;;;;7.90;100.00;98739.81;4185385;28;20469;-73
2023/05/14 02:50:52;;;;;;;11.07;8.07;;;;;;;7.85;100.00;98746.34;4187821;28;20048;-73
2023/05/14 02:52:53;;;;;;;13.95;8.70;;;;;;;7.77;100.00;98741.81;4189956;28;20037;-73
2023/05/14 02:54:53;;;;;;;11.57;8.32;;;;;;;7.69;100.00;98730.97;4179128;28;20037;-73
2023/05/14 02:56:53;;;;;;;9.45;7.38;;;;;;;7.59;100.00;98727.56;4190540;28;20296;-73
2023/05/14 02:58:53;;;;;;;9.77;8.10;;;;;;;7.51;100.00;98734.03;4184397;28;20040;-73
2023/05/14 03:00:54;;;;;;;11.85;8.60;;;;;;;7.52;100.00;98732.88;4191115;28;20441;-73
2023/05/14 03:02:54;;;;;;;13.75;8.60;;;;;;;7.54;100.00;98729.81;4188335;28;20044;-73
2023/05/14 03:04:55;;;;;;;10.70;7.47;;;;;;;7.54;100.00;98724.28;4190092;28;20466;-73
2023/05/14 03:06:55;;;;;;;13.18;7.68;;;;;;;7.54;100.00;98729.81;4190681;28;20045;-73
2023/05/14 03:08:55;;;;;;;9.93;7.60;;;;;;;7.57;100.00;98740.91;4185241;28;20045;-73
2023/05/14 03:10:56;;;;;;;9.10;7.38;;;;;;;7.53;100.00;98730.94;4185749;28;20041;-73
2023/05/14 03:12:56;;;;;;;9.50;7.95;;;;;;;7.44;100.00;98722.81;4188579;28;20032;-73
2023/05/14 03:14:56;;;;;;;14.20;9.13;;;;;;;7.39;100.00;98728.59;4186434;28;20086;-73
2023/05/14 03:16:56;;;;;;;12.02;8.13;;;;;;;7.31;100.00;98732.31;4189378;28;20028;-73
2023/05/14 03:18:57;;;;;;;9.68;8.05;;;;;;;7.24;100.00;98727.38;4189874;28;20041;-73
2023/05/14 03:20:57;;;;;;;16.05;9.13;;;;;;;7.19;100.00;98732.34;4182644;28;20052;-73
2023/05/14 03:22:57;;;;;;;11.65;7.32;;;;;;;7.14;100.00;98736.16;4183720;28;20059;-73
2023/05/14 03:24:58;;;;;;;16.98;8.05;;;;;;;7.14;100.00;98727.91;4182638;28;20053;-73
2023/05/14 03:26:58;;;;;;;11.98;8.13;;;;;;;7.17;100.00;98723.63;4182280;28;20507;-73
2023/05/14 03:28:58;;;;;;;9.68;7.82;;;;;;;7.16;100.00;98727.53;4186946;28;20062;-73
2023/05/14 03:30:59;;;;;;;9.50;7.50;;;;;;;7.18;100.00;98723.28;4178690;28;20110;-73
2023/05/14 03:33:00;;;;;;;11.95;8.40;;;;;;;7.17;100.00;98720.88;4178155;28;20049;-73
2023/05/14 03:35:00;;;;;;;12.35;8.63;;;;;;;7.16;100.00;98719.28;4184133;28;20469;-73
2023/05/14 03:37:00;;;;;;;10.07;7.90;;;;;;;7.12;100.00;98716.44;4189048;28;20048;-73
2023/05/14 03:39:01;;;;;;;12.00;7.40;;;;;;;7.15;100.00;98726.75;4189338;28;20477;-73
2023/05/14 03:41:02;;;;;;;12.38;8.80;;;;;;;7.12;100.00;98727.44;4184260;28;20380;-73
2023/05/14 03:43:02;;;;;;;10.38;8.05;;;;;;;7.07;100.00;98726.88;4188924;28;20040;-73
2023/05/14 03:45:02;;;;;;;11.23;7.88;;;;;;;7.06;100.00;98728.84;4181888;28;20132;-73
2023/05/14 03:47:03;;;;;;;12.13;8.65;;;;;;;6.99;100.00;98725.88;4182330;28;20052;-73
2023/05/14 03:49:03;;;;;;;12.32;9.50;;;;;;;6.93;100.00;98719.81;4181570;28;20063;-73
2023/05/14 03:51:04;;;;;;;9.52;7.55;;;;;;;6.93;100.00;98724.50;4183179;28;20036;-73
2023/05/14 03:53:04;;;;;;;15.35;9.50;;;;;;;6.94;100.00;98731.59;4188906;28;21039;-73
2023/05/14 03:55:05;;;;;;;14.25;8.57;;;;;;;6.96;100.00;98716.38;4186962;28;20447;-73
2023/05/14 03:57:05;;;;;;;14.70;9.55;;;;;;;6.96;100.00;98710.88;4184301;28;20052;-73
2023/05/14 03:59:06;;;;;;;14.98;9.50;;;;;;;7.02;100.00;98711.41;4180370;28;20079;-73
2023/05/14 04:01:06;;;;;;;14.05;9.13;;;;;;;7.10;100.00;98712.41;4183761;28;20499;-73
2023/05/14 04:03:07;;;;;;;13.73;10.18;;;;;;;7.19;100.00;98713.88;4180332;28;20099;-73
2023/05/14 04:05:07;;;;;;;13.52;10.48;;;;;;;7.23;100.00;98720.28;4183162;28;20114;-73
2023/05/14 04:07:08;;;;;;;13.60;9.45;;;;;;;7.25;100.00;98720.72;4183393;28;20044;-73
2023/05/14 04:09:09;;;;;;;11.48;9.25;;;;;;;7.30;100.00;98723.25;4181080;28;20078;-73
2023/05/14 04:11:10;;;;;;;14.10;10.25;;;;;;;7.26;100.00;98716.81;4184028;28;20500;-73
2023/05/14 04:13:10;;;;;;;11.05;8.60;;;;;;;7.26;100.00;98722.31;4181289;28;20072;-73
2023/05/14 04:15:10;;;;;;;12.18;8.60;;;;;;;7.28;100.00;98719.22;4177104;28;20033;-73
2023/05/14 04:17:11;;;;;;;11.85;8.88;;;;;;;7.32;100.00;98720.94;4183666;28;20432;-73
2023/05/14 04:19:11;;;;;;;13.23;9.35;;;;;;;7.34;100.00;98717.81;4178863;28;20045;-73
2023/05/14 04:21:11;;;;;;;12.32;9.40;;;;;;;7.35;100.00;98715.88;4183532;28;20033;-73
2023/05/14 04:23:11;;;;;;;13.18;9.68;;;;;;;7.36;100.00;98718.28;4180322;28;20045;-73
2023/05/14 04:25:12;;;;;;;16.48;9.55;;;;;;;7.36;100.00;98714.72;4183564;28;20119;-73
2023/05/14 04:27:21;;;;;;;15.93;9.80;;;;;;;7.38;100.00;98715.19;4182134;28;20076;-73
2023/05/14 04:29:21;;;;;;;11.75;8.55;;;;;;;7.40;100.00;98719.19;4180769;28;20094;-73
2023/05/14 04:31:22;;;;;;;11.02;8.63;;;;;;;7.39;100.00;98714.03;4184231;28;20490;-73
2023/05/14 04:33:22;;;;;;;14.68;10.02;;;;;;;7.42;100.00;98711.38;4179927;28;20064;-73
2023/05/14 04:35:23;;;;;;;12.00;9.57;;;;;;;7.44;100.00;98716.53;4185015;28;20033;-73
2023/05/14 04:37:24;;;;;;;11.85;9.52;;;;;;;7.43;100.00;98712.97;4179862;28;20150;-73
2023/05/14 04:39:25;;;;;;;14.20;9.15;;;;;;;7.48;100.00;98714.69;4187802;28;20484;-73
2023/05/14 04:41:25;;;;;;;12.63;9.10;;;;;;;7.50;100.00;98715.13;4181778;28;20032;-73
2023/05/14 04:43:25;;;;;;;12.75;9.20;;;;;;;7.49;100.00;98717.06;4180718;28;20049;-73
2023/05/14 04:45:26;;;;;;;13.15;9.25;;;;;;;7.52;100.00;98710.84;4178420;28;20081;-73
2023/05/14 04:47:26;;;;;;;14.45;9.85;;;;;;;7.54;100.00;98707.78;4185650;28;20516;-73
2023/05/14 04:49:27;;;;;;;12.23;8.40;;;;;;;7.64;100.00;98715.50;4177971;28;20092;-73
2023/05/14 04:51:27;;;;;;;12.05;8.70;;;;;;;7.70;100.00;98708.59;4183531;28;20048;-73
2023/05/14 04:53:27;;;;;;;13.70;9.68;;;;;;;7.80;100.00;98710.81;4183536;28;20052;-73
2023/05/14 04:55:28;;;;;;;15.27;10.38;;;;;;;7.87;100.00;98715.72;4182118;28;20051;-73
2023/05/14 04:57:28;;;;;;;15.35;11.73;;;;;;;7.93;100.00;98717.03;4184193;28;20167;-73
2023/05/14 04:59:29;;;;;;;15.68;10.23;;;;;;;7.95;100.00;98711.19;4178981;28;20060;-73
2023/05/14 05:01:29;;;;;;;15.43;9.95;;;;;;;8.01;100.00;98718.03;4179136;28;20087;-73
2023/05/14 05:03:30;;;;;;;12.02;9.05;;;;;;;8.06;100.00;98721.31;4183746;28;20507;-73
2023/05/14 05:05:30;;;;;;;11.95;9.15;;;;;;;8.08;100.00;98727.28;4183871;28;20044;-73
2023/05/14 05:07:30;;;;;;;11.18;8.13;;;;;;;8.12;100.00;98735.66;4184597;28;20507;-73
2023/05/14 05:09:31;;;;;;;12.10;8.85;;;;;;;8.20;100.00;98731.91;4180536;28;20501;-73
2023/05/14 05:11:31;;;;;;;12.80;10.00;;;;;;;8.25;100.00;98730.84;4182097;28;20480;-73
2023/05/14 05:13:32;;;;;;;13.55;10.05;;;;;;;8.29;100.00;98728.97;4181730;28;20477;-73
2023/05/14 05:15:32;;;;;;;12.43;9.35;;;;;;;8.36;100.00;98731.94;4180299;28;20056;-73
2023/05/14 05:17:32;;;;;;;13.02;10.00;;;;;;;8.48;100.00;98734.59;4180534;28;20055;-73
2023/05/14 05:19:32;;;;;;;13.30;10.57;;;;;;;8.56;100.00;98739.09;4182809;28;20902;-73
2023/05/14 05:21:34;;;;;;;13.77;10.07;;;;;;;8.62;100.00;98734.13;4181559;28;20051;-73
2023/05/14 05:23:34;;;;;;;16.60;9.88;;;;;;;8.68;100.00;98729.91;4178729;28;20274;-73
2023/05/14 05:25:34;;;;;;;11.70;9.77;;;;;;;8.76;100.00;98726.16;4186143;28;20485;-73
2023/05/14 05:27:35;;;;;;;13.88;10.50;;;;;;;8.88;100.00;98728.00;4176512;28;20083;-73
2023/05/14 05:29:35;;;;;;;12.48;9.65;;;;;;;8.96;100.00;98724.25;4181511;28;20056;-73
2023/05/14 05:31:36;;;;;;;12.57;9.45;;;;;;;9.03;100.00;98726.38;4183307;28;20071;-73
2023/05/14 05:33:36;;;;;;;11.82;8.32;;;;;;;9.09;100.00;98720.19;4181105;28;20128;-73
2023/05/14 05:35:36;;;;;;;9.57;8.27;;;;;;;9.08;100.00;98723.31;4180190;28;20122;-73
2023/05/14 05:37:37;;;;;;;11.90;8.75;;;;;;;9.13;100.00;98723.81;4180668;28;20067;-73
2023/05/14 05:39:38;;;;;;;10.65;8.10;;;;;;;9.16;100.00;98717.56;4180377;28;20111;-73
2023/05/14 05:41:38;;;;;;;10.20;8.32;;;;;;;9.21;100.00;98716.50;4182907;28;20045;-73
2023/05/14 05:43:38;;;;;;;9.40;7.80;;;;;;;9.21;100.00;98714.53;4176834;28;20051;-73
2023/05/14 05:45:39;;;;;;;11.20;8.52;;;;;;;9.22;100.00;98718.88;4181763;28;20033;-73
2023/05/14 05:47:39;;;;;;;12.57;8.20;;;;;;;9.18;100.00;98715.25;4180974;28;20076;-73
2023/05/14 05:49:40;;;;;;;9.93;7.50;;;;;;;9.17;100.00;98721.94;4178315;28;20486;-73
2023/05/14 05:51:40;;;;;;;10.43;8.30;;;;;;;9.14;100.00;98716.34;4182582;28;20040;-73
2023/05/14 05:53:40;;;;;;;10.25;8.68;;;;;;;9.13;100.00;98726.59;4183465;28;20051;-73
2023/05/14 05:55:41;;;;;;;9.57;7.88;;;;;;;9.11;100.00;98726.16;4182206;28;20478;-73
2023/05/14 05:57:41;;;;;;;11.40;8.63;;;;;;;9.11;100.00;98722.59;4186357;28;20066;-73
2023/05/14 05:59:42;;;;;;;10.68;8.57;;;;;;;9.12;100.00;98713.94;4186467;28;20044;-73
2023/05/14 06:01:42;;;;;;;11.20;8.57;;;;;;;9.17;100.00;98724.69;4178237;28;20454;-73
2023/05/14 06:03:42;;;;;;;11.98;8.65;;;;;;;9.19;100.00;98716.06;4186124;28;20147;-73
2023/05/14 06:05:43;;;;;;;10.40;7.93;;;;;;;9.24;100.00;98711.03;4182848;28;20432;-73
2023/05/14 06:07:43;;;;;;;10.07;8.20;;;;;;;9.34;100.00;98717.13;4188054;28;20048;-73
2023/05/14 06:09:43;;;;;;;12.10;9.50;;;;;;;9.46;100.00;98711.47;4183356;28;20048;-73
2023/05/14 06:11:44;;;;;;;13.95;10.57;;;;;;;9.56;100.00;98714.44;4178697;28;20048;-73
2023/05/14 06:13:44;;;;;;;12.52;9.70;;;;;;;9.70;100.00;98710.34;4186093;28;20601;-73
2023/05/14 06:15:44;;;;;;;15.90;11.05;;;;;;;9.80;100.00;98712.50;4182534;28;20569;-73
2023/05/14 06:17:45;;;;;;;11.80;9.45;;;;;;;9.94;100.00;98707.25;4182459;28;20198;-73
2023/05/14 06:19:45;;;;;;;13.85;10.80;;;;;;;10.09;100.00;98708.25;4181415;28;20154;-73
2023/05/14 06:21:46;;;;;;;12.20;10.10;;;;;;;10.23;100.00;98707.75;4180598;28;20094;-73
2023/05/14 06:23:46;;;;;;;12.05;9.52;;;;;;;10.33;100.00;98710.66;4179190;28;20060;-73
2023/05/14 06:25:49;;;;;;;12.05;8.88;;;;;;;10.49;100.00;98704.19;4181291;28;20184;-73
2023/05/14 06:27:49;;;;;;;18.10;10.95;;;;;;;10.57;100.00;98711.44;4183807;28;20457;-73
2023/05/14 06:29:49;;;;;;;13.90;11.40;;;;;;;10.69;100.00;98708.47;4180322;28;20054;-73
2023/05/14 06:31:50;;;;;;;13.68;9.65;;;;;;;10.83;100.00;98710.63;4180202;28;20040;-73
2023/05/14 06:33:50;;;;;;;13.13;9.13;;;;;;;10.99;100.00;98700.16;4177926;28;20140;-73
2023/05/14 06:35:51;;;;;;;16.00;10.63;;;;;;;11.13;100.00;98694.03;4185240;28;20048;-73
2023/05/14 06:37:51;;;;;;;13.02;8.48;;;;;;;11.27;100.00;98702.53;4181308;28;20082;-73
2023/05/14 06:39:52;;;;;;;12.93;10.00;;;;;;;11.39;100.00;98695.94;4180395;28;20056;-73
2023/05/14 06:41:52;;;;;;;12.90;9.98;;;;;;;11.46;100.00;98696.81;4181665;28;20420;-73
2023/05/14 06:43:52;;;;;;;17.02;10.35;;;;;;;11.48;100.00;98688.91;4178938;28;20133;-73
2023/05/14 06:45:53;;;;;;;16.67;10.85;;;;;;;11.49;100.00;98689.69;4179884;28;20045;-73
2023/05/14 06:47:54;;;;;;;12.18;9.77;;;;;;;11.51;100.00;98693.72;4183435;28;20547;-73
2023/05/14 06:49:57;;;;;;;12.90;10.23;;;;;;;11.54;100.00;98692.94;4180311;28;20114;-73
2023/05/14 06:51:57;;;;;;;13.30;9.55;;;;;;;11.57;100.00;98683.06;4181021;28;20410;-73
2023/05/14 06:53:57;;;;;;;11.30;9.30;;;;;;;11.63;100.00;98687.09;4186432;28;20044;-73
2023/05/14 06:55:58;;;;;;;12.77;10.00;;;;;;;11.70;100.00;98683.59;4149337;28;20138;-73
2023/05/14 06:57:58;;;;;;;11.30;9.52;;;;;;;11.81;100.00;98681.75;4181030;28;20446;-73
2023/05/14 06:59:59;;;;;;;12.00;9.57;;;;;;;11.88;100.00;98675.50;4180781;28;20041;-73
2023/05/14 07:02:00;;;;;;;11.30;9.25;;;;;;;11.96;100.00;98679.91;4180675;28;20127;-73
2023/05/14 07:04:00;;;;;;;10.98;9.40;;;;;;;12.06;100.00;98679.22;4179799;28;20576;-72
2023/05/14 07:06:00;;;;;;;12.75;9.50;;;;;;;12.14;100.00;98669.78;4180250;28;20102;-73
2023/05/14 07:08:01;;;;;;;10.82;9.48;;;;;;;12.21;100.00;98678.16;4181646;28;20048;-73
2023/05/14 07:10:01;;;;;;;13.38;9.25;;;;;;;12.28;100.00;98682.97;4182158;28;20033;-73
2023/05/14 07:12:02;;;;;;;12.15;9.50;;;;;;;12.31;100.00;98683.00;4183946;28;20484;-73
2023/05/14 07:14:02;;;;;;;11.68;9.73;;;;;;;12.33;100.00;98686.19;4183263;28;20285;-73
2023/05/14 07:16:03;;;;;;;14.02;9.15;;;;;;;12.37;100.00;98680.66;4181398;28;20079;-74
2023/05/14 07:18:03;;;;;;;12.45;9.40;;;;;;;12.37;100.00;98675.13;4182099;28;20025;-73
2023/05/14 07:20:04;;;;;;;12.18;9.20;;;;;;;12.41;100.00;98680.69;4181488;28;20032;-73
2023/05/14 07:22:05;;;;;;;14.45;10.60;;;;;;;12.46;100.00;98667.25;4180412;28;20436;-73
2023/05/14 07:24:05;;;;;;;15.85;10.15;;;;;;;12.50;100.00;98664.50;4180875;28;20037;-73
2023/05/14 07:26:07;;;;;;;14.25;10.27;;;;;;;12.52;100.00;98664.91;4183030;28;20021;-73
2023/05/14 07:28:07;;;;;;;12.40;9.50;;;;;;;12.57;100.00;98659.78;4184987;28;20232;-73
2023/05/14 07:30:08;;;;;;;13.68;10.38;;;;;;;12.70;100.00;98665.81;4180397;28;20102;-74
2023/05/14 07:32:08;;;;;;;13.50;10.43;;;;;;;12.82;100.00;98659.13;4182585;28;20025;-73
2023/05/14 07:34:09;;;;;;;11.63;9.75;;;;;;;12.89;100.00;98656.41;4179914;28;20778;-73
2023/05/14 07:36:10;;;;;;;14.23;10.18;;;;;;;12.90;100.00;98641.31;4183640;28;20468;-73
2023/05/14 07:38:10;;;;;;;12.52;10.32;;;;;;;12.91;100.00;98654.84;4183975;28;20124;-73
2023/05/14 07:40:11;;;;;;;12.90;10.00;;;;;;;12.93;100.00;98640.56;4177167;28;20475;-74
2023/05/14 07:42:11;;;;;;;11.05;9.85;;;;;;;12.91;100.00;98648.50;4186184;28;20613;-74
2023/05/14 07:44:12;;;;;;;14.45;11.05;;;;;;;12.92;100.00;98645.31;4177895;28;20028;-73
2023/05/14 07:46:13;;;;;;;15.13;10.90;;;;;;;13.05;100.00;98648.53;4182020;28;20063;-74
2023/05/14 07:48:14;;;;;;;11.98;10.15;;;;;;;13.18;100.00;98646.22;4187324;28;20032;-74
2023/05/14 07:50:15;;;;;;;12.30;9.90;;;;;;;13.29;100.00;98637.94;4182464;28;20517;-73
2023/05/14 07:52:15;;;;;;;12.85;10.20;;;;;;;13.42;100.00;98637.19;4181841;28;20488;-73
2023/05/14 07:54:15;;;;;;;11.65;9.50;;;;;;;13.57;100.00;98631.66;4180435;28;20031;-74
2023/05/14 07:56:16;;;;;;;10.15;8.70;;;;;;;13.68;100.00;98630.50;4182683;28;20024;-74
2023/05/14 07:58:16;;;;;;;9.90;8.80;;;;;;;13.71;100.00;98626.13;4179527;28;20420;-73
2023/05/14 08:00:17;;;;;;;12.30;9.07;;;;;;;13.73;100.00;98632.88;4180285;28;20112;-73
2023/05/14 08:02:17;;;;;;;11.48;9.50;;;;;;;13.76;100.00;98620.97;4177866;28;20187;-73
2023/05/14 08:04:18;;;;;;;12.27;9.15;;;;;;;13.82;100.00;98623.34;4181517;28;20033;-73
2023/05/14 08:06:20;;;;;;;10.10;8.63;;;;;;;13.91;100.00;98621.78;4183274;28;20050;-73
2023/05/14 08:08:20;;;;;;;11.00;9.68;;;;;;;14.02;100.00;98627.34;4185904;28;20541;-74
2023/05/14 08:10:21;;;;;;;12.07;9.32;;;;;;;14.17;100.00;98619.78;4179485;28;20052;-74
2023/05/14 08:12:21;;;;;;;10.30;8.85;;;;;;;14.31;100.00;98616.97;4182029;28;20144;-74
2023/05/14 08:14:22;;;;;;;10.63;9.52;;;;;;;14.36;100.00;98607.44;4182842;28;20040;-74
2023/05/14 08:16:23;;;;;;;10.57;9.48;;;;;;;14.41;100.00;98607.84;4179041;28;20041;-74
2023/05/14 08:18:23;;;;;;;12.25;9.25;;;;;;;14.51;100.00;98606.25;4177848;28;20033;-73
2023/05/14 08:20:24;;;;;;;12.10;9.18;;;;;;;14.42;100.00;98616.97;4183314;28;20431;-73
2023/05/14 08:22:24;;;;;;;9.23;8.13;;;;;;;14.42;100.00;98605.84;4181811;28;20296;-74
2023/05/14 08:24:25;;;;;;;11.23;8.93;;;;;;;14.49;100.00;98603.88;4183020;28;20028;-74
2023/05/14 08:26:25;;;;;;;9.85;8.30;;;;;;;14.54;100.00;98603.44;4182120;28;20497;-74
2023/05/14 08:28:25;;;;;;;11.15;9.75;;;;;;;14.65;100.00;98597.88;4183504;28;20068;-74
2023/05/14 08:30:26;;;;;;;13.40;8.75;;;;;;;14.76;100.00;98597.81;4181661;28;20534;-74
2023/05/14 08:32:26;;;;;;;10.20;8.27;;;;;;;14.88;100.00;98597.38;4182716;28;20148;-74
2023/05/14 08:34:27;;;;;;;10.13;8.65;;;;;;;15.02;100.00;98588.97;4182074;28;20409;-74
2023/05/14 08:36:27;;;;;;;9.00;8.10;;;;;;;15.07;100.00;98590.53;4182252;28;20045;-74
2023/05/14 08:38:28;;;;;;;10.35;7.55;;;;;;;15.04;99.21;98589.34;4182175;28;20053;-74
2023/05/14 08:40:28;;;;;;;10.10;7.43;;;;;;;14.93;99.77;98591.41;4180871;28;20370;-74
2023/05/14 08:42:29;;;;;;;8.35;7.05;;;;;;;14.76;98.88;98586.69;4181927;28;20048;-74
2023/05/14 08:44:36;;;;;;;9.02;7.30;;;;;;;14.70;100.00;98574.38;4181108;28;20068;-74
2023/05/14 08:46:38;;;;;;;8.23;6.15;;;;;;;14.70;99.99;98582.72;4182980;28;20064;-74
2023/05/14 08:48:41;;;;;;;7.15;6.00;;;;;;;14.75;98.12;98577.53;4180333;28;20048;-73
2023/05/14 08:50:42;;;;;;;7.10;5.63;;;;;;;15.01;100.00;98578.22;4182975;28;20032;-74
2023/05/14 08:52:43;;;;;;;7.45;6.30;;;;;;;15.14;100.00;98582.94;4174672;28;20124;-74
2023/05/14 08:54:45;;;;;;;6.47;5.30;;;;;;;15.16;98.91;98563.81;4181471;28;20040;-74
2023/05/14 08:56:45;;;;;;;9.15;5.63;;;;;;;15.13;97.23;98578.56;4179251;28;20488;-73
2023/05/14 08:58:46;;;;;;;6.65;5.10;;;;;;;15.09;99.27;98571.44;4181727;28;20052;-74
2023/05/14 09:00:46;;;;;;;6.28;5.25;;;;;;;15.08;99.76;98573.41;4183116;28;20085;-74
2023/05/14 09:02:48;;;;;;;7.78;5.65;;;;;;;15.20;99.70;98577.72;4185852;28;20142;-74
2023/05/14 09:04:53;;;;;;;7.03;5.90;;;;;;;15.23;96.13;98571.34;4182697;28;20051;-74
2023/05/14 09:06:54;;;;;;;5.55;4.97;;;;;;;15.19;95.29;98573.34;4181499;28;20060;-74
2023/05/14 09:08:55;;;;;;;5.70;4.85;;;;;;;15.15;93.00;98576.19;4183917;28;20064;-74
2023/05/14 09:10:55;;;;;;;6.60;5.07;;;;;;;15.35;94.69;98568.09;4179571;28;20040;-74
2023/05/14 09:12:55;;;;;;;5.88;4.97;;;;;;;15.61;93.22;98566.75;4178473;28;20056;-74
2023/05/14 09:14:56;;;;;;;6.93;5.35;;;;;;;15.77;90.85;98555.06;4184560;28;20056;-73
2023/05/14 09:16:56;;;;;;;5.22;4.72;;;;;;;15.94;91.31;98567.28;4182891;28;20499;-73
2023/05/14 09:18:57;;;;;;;8.95;4.60;;;;;;;16.23;94.83;98560.25;4182450;28;20044;-73
2023/05/14 09:20:57;;;;;;;5.97;5.07;;;;;;;16.45;94.19;98560.00;4180785;28;20425;-73
2023/05/14 09:22:58;;;;;;;5.18;4.68;;;;;;;16.59;90.00;98568.25;4180998;28;20148;-74